KPOU/POU METAR and TAF weather

Enter ICAO airport designator
Station Type Date Time Source
KPOU METAR 2020/08/15 15:53 UTC NOAA

KPOU 151553Z 03005KT 10SM CLR 28/16 A3002 RMK AO2 SLP163 T02780161


Station Type Date Time Source
KPOU Decoded METAR 2020/08/15 15:53 UTC NOAA

POUGHKEEPSIE DUTCHESS CTY, NY, United States (KPOU) 41-38N 073-53W 46M
Aug 15, 2020 - 11:53 AM EDT / 2020.08.15 1553 UTC
Wind: from the NNE (030 degrees) at 6 MPH (5 KT):0
Visibility: 10 mile(s):0
Sky conditions: clear
Temperature: 82.0 F (27.8 C)
Dew Point: 61.0 F (16.1 C)
Relative Humidity: 48%
Pressure (altimeter): 30.02 in. Hg (1016 hPa)
ob: KPOU 151553Z 03005KT 10SM CLR 28/16 A3002 RMK AO2 SLP163 T02780161
cycle: 16

Station Type Date Time Source
KPOU TAF 2020/08/15 12:34 UTC NOAA

TAF KPOU 151132Z 1512/1612 02004KT P6SM BKN080
FM151600 08006KT P6SM SCT070
FM160000 09005KT P6SM BKN080

Example: see airport list